sensor_id;sensor_type;location;lat;lon;timestamp;pressure;altitude;pressure_sealevel;temperature;humidity
10958;BME280;5531;42.570;23.676;2023-03-14T00:00:21;92131.06;;;0.65;73.77
10958;BME280;5531;42.570;23.676;2023-03-14T00:02:52;92125.06;;;0.55;74.16
10958;BME280;5531;42.570;23.676;2023-03-14T00:05:21;92126.97;;;0.53;74.45
10958;BME280;5531;42.570;23.676;2023-03-14T00:07:50;92126.03;;;0.54;73.76
10958;BME280;5531;42.570;23.676;2023-03-14T00:10:20;92129.69;;;0.51;74.40
10958;BME280;5531;42.570;23.676;2023-03-14T00:12:49;92124.25;;;0.45;74.45
10958;BME280;5531;42.570;23.676;2023-03-14T00:15:18;92124.91;;;0.47;74.86
10958;BME280;5531;42.570;23.676;2023-03-14T00:17:49;92127.09;;;0.42;75.38
10958;BME280;5531;42.570;23.676;2023-03-14T00:20:18;92124.78;;;0.39;75.28
10958;BME280;5531;42.570;23.676;2023-03-14T00:22:47;92119.63;;;0.39;74.92
10958;BME280;5531;42.570;23.676;2023-03-14T00:25:16;92115.84;;;0.43;75.02
10958;BME280;5531;42.570;23.676;2023-03-14T00:27:45;92117.84;;;0.39;74.53
10958;BME280;5531;42.570;23.676;2023-03-14T00:30:15;92111.09;;;0.38;74.95
10958;BME280;5531;42.570;23.676;2023-03-14T00:32:44;92105.25;;;0.36;74.62
10958;BME280;5531;42.570;23.676;2023-03-14T00:35:16;92102.97;;;0.43;74.90
10958;BME280;5531;42.570;23.676;2023-03-14T00:37:45;92101.19;;;0.43;74.60
10958;BME280;5531;42.570;23.676;2023-03-14T00:40:14;92091.28;;;0.39;74.55
10958;BME280;5531;42.570;23.676;2023-03-14T00:42:43;92087.63;;;0.31;75.68
10958;BME280;5531;42.570;23.676;2023-03-14T00:45:11;92076.47;;;0.31;75.84
10958;BME280;5531;42.570;23.676;2023-03-14T00:47:40;92077.31;;;0.22;75.19
10958;BME280;5531;42.570;23.676;2023-03-14T00:50:11;92065.09;;;0.14;75.50
10958;BME280;5531;42.570;23.676;2023-03-14T00:52:43;92059.94;;;0.14;76.57
10958;BME280;5531;42.570;23.676;2023-03-14T00:55:14;92059.66;;;0.07;76.32
10958;BME280;5531;42.570;23.676;2023-03-14T00:57:43;92050.97;;;-0.02;76.94
10958;BME280;5531;42.570;23.676;2023-03-14T01:00:13;92052.97;;;-0.05;77.06
10958;BME280;5531;42.570;23.676;2023-03-14T01:02:43;92046.47;;;-0.09;76.98
10958;BME280;5531;42.570;23.676;2023-03-14T01:05:12;92044.69;;;-0.19;77.53
10958;BME280;5531;42.570;23.676;2023-03-14T01:07:44;92045.22;;;-0.15;77.98
10958;BME280;5531;42.570;23.676;2023-03-14T01:10:13;92051.22;;;-0.14;77.56
10958;BME280;5531;42.570;23.676;2023-03-14T01:12:42;92041.44;;;-0.11;78.02
10958;BME280;5531;42.570;23.676;2023-03-14T01:15:11;92042.00;;;-0.07;77.58
10958;BME280;5531;42.570;23.676;2023-03-14T01:17:40;92039.41;;;-0.07;77.47
10958;BME280;5531;42.570;23.676;2023-03-14T01:20:12;92041.22;;;0.02;76.59
10958;BME280;5531;42.570;23.676;2023-03-14T01:22:44;92039.19;;;0.06;76.57
10958;BME280;5531;42.570;23.676;2023-03-14T01:25:15;92036.72;;;0.04;76.28
10958;BME280;5531;42.570;23.676;2023-03-14T01:27:45;92037.00;;;0.11;75.93
10958;BME280;5531;42.570;23.676;2023-03-14T01:30:14;92032.13;;;0.17;75.88
10958;BME280;5531;42.570;23.676;2023-03-14T01:32:43;92038.41;;;0.25;75.11
10958;BME280;5531;42.570;23.676;2023-03-14T01:35:12;92032.53;;;0.23;75.11
10958;BME280;5531;42.570;23.676;2023-03-14T01:37:44;92033.25;;;0.25;74.51
10958;BME280;5531;42.570;23.676;2023-03-14T01:40:13;92033.91;;;0.27;74.91
10958;BME280;5531;42.570;23.676;2023-03-14T01:42:46;92031.75;;;0.32;74.74
10958;BME280;5531;42.570;23.676;2023-03-14T01:48:13;92030.09;;;0.31;74.93
10958;BME280;5531;42.570;23.676;2023-03-14T01:50:43;92026.97;;;0.08;75.67
10958;BME280;5531;42.570;23.676;2023-03-14T01:53:15;92030.66;;;0.05;75.68
10958;BME280;5531;42.570;23.676;2023-03-14T01:55:47;92019.47;;;-0.15;77.13
10958;BME280;5531;42.570;23.676;2023-03-14T01:58:17;92011.16;;;-0.48;79.22
10958;BME280;5531;42.570;23.676;2023-03-14T02:00:46;92005.69;;;-0.64;80.19
10958;BME280;5531;42.570;23.676;2023-03-14T02:03:16;91997.94;;;-0.74;80.16
10958;BME280;5531;42.570;23.676;2023-03-14T02:05:46;91994.69;;;-0.76;81.32
10958;BME280;5531;42.570;23.676;2023-03-14T02:08:20;92003.41;;;-0.88;81.96
10958;BME280;5531;42.570;23.676;2023-03-14T02:10:51;91994.91;;;-0.89;82.60
10958;BME280;5531;42.570;23.676;2023-03-14T02:13:21;92004.88;;;-0.96;82.89
10958;BME280;5531;42.570;23.676;2023-03-14T02:15:50;91997.47;;;-0.89;81.87
10958;BME280;5531;42.570;23.676;2023-03-14T02:18:19;91993.13;;;-0.88;82.46
10958;BME280;5531;42.570;23.676;2023-03-14T02:20:51;91993.78;;;-0.96;83.02
10958;BME280;5531;42.570;23.676;2023-03-14T02:23:31;91999.44;;;-1.02;83.12
10958;BME280;5531;42.570;23.676;2023-03-14T02:26:07;91997.38;;;-1.08;83.00
10958;BME280;5531;42.570;23.676;2023-03-14T02:28:41;92001.59;;;-1.07;83.59
10958;BME280;5531;42.570;23.676;2023-03-14T02:31:11;92006.59;;;-1.06;83.87
10958;BME280;5531;42.570;23.676;2023-03-14T02:33:40;92003.06;;;-1.05;83.82
10958;BME280;5531;42.570;23.676;2023-03-14T02:36:12;92004.47;;;-1.01;83.87
10958;BME280;5531;42.570;23.676;2023-03-14T02:38:46;91997.00;;;-1.04;83.90
10958;BME280;5531;42.570;23.676;2023-03-14T02:41:16;92002.16;;;-1.04;84.57
10958;BME280;5531;42.570;23.676;2023-03-14T02:43:48;91994.81;;;-1.08;84.39
10958;BME280;5531;42.570;23.676;2023-03-14T02:46:18;91996.00;;;-1.13;83.74
10958;BME280;5531;42.570;23.676;2023-03-14T02:48:51;91994.38;;;-1.14;84.56
10958;BME280;5531;42.570;23.676;2023-03-14T02:51:22;91987.72;;;-1.16;83.98
10958;BME280;5531;42.570;23.676;2023-03-14T02:53:52;91990.44;;;-1.18;84.47
10958;BME280;5531;42.570;23.676;2023-03-14T02:56:21;91984.59;;;-1.20;84.46
10958;BME280;5531;42.570;23.676;2023-03-14T02:58:53;91976.34;;;-1.23;84.41
10958;BME280;5531;42.570;23.676;2023-03-14T03:01:23;91964.41;;;-1.24;84.90
10958;BME280;5531;42.570;23.676;2023-03-14T03:03:52;91968.63;;;-1.23;84.16
10958;BME280;5531;42.570;23.676;2023-03-14T03:06:21;91966.63;;;-1.20;84.47
10958;BME280;5531;42.570;23.676;2023-03-14T03:08:50;91969.69;;;-1.26;84.55
10958;BME280;5531;42.570;23.676;2023-03-14T03:11:19;91978.06;;;-1.24;84.72
10958;BME280;5531;42.570;23.676;2023-03-14T03:13:48;91974.31;;;-1.20;84.21
10958;BME280;5531;42.570;23.676;2023-03-14T03:16:20;91975.00;;;-1.18;84.35
10958;BME280;5531;42.570;23.676;2023-03-14T03:18:49;91982.28;;;-1.23;84.19
10958;BME280;5531;42.570;23.676;2023-03-14T03:21:18;91982.03;;;-1.20;84.28
10958;BME280;5531;42.570;23.676;2023-03-14T03:23:49;91984.47;;;-1.18;83.84
10958;BME280;5531;42.570;23.676;2023-03-14T03:26:18;91996.41;;;-1.17;84.77
10958;BME280;5531;42.570;23.676;2023-03-14T03:28:47;91991.44;;;-1.09;84.05
10958;BME280;5531;42.570;23.676;2023-03-14T03:31:21;91987.97;;;-1.19;84.79
10958;BME280;5531;42.570;23.676;2023-03-14T03:33:50;91982.59;;;-1.16;83.75
10958;BME280;5531;42.570;23.676;2023-03-14T03:36:21;91975.44;;;-1.13;84.22
10958;BME280;5531;42.570;23.676;2023-03-14T03:38:50;91981.44;;;-1.02;83.24
10958;BME280;5531;42.570;23.676;2023-03-14T03:41:19;91989.53;;;-1.07;83.62
10958;BME280;5531;42.570;23.676;2023-03-14T03:43:48;91984.69;;;-1.00;83.21
10958;BME280;5531;42.570;23.676;2023-03-14T03:46:17;91985.00;;;-0.94;82.26
10958;BME280;5531;42.570;23.676;2023-03-14T03:48:54;91980.63;;;-1.03;82.77
10958;BME280;5531;42.570;23.676;2023-03-14T03:51:23;91983.00;;;-1.11;83.18
10958;BME280;5531;42.570;23.676;2023-03-14T03:53:52;91966.88;;;-1.23;83.71
10958;BME280;5531;42.570;23.676;2023-03-14T03:56:21;91973.72;;;-1.33;85.02
10958;BME280;5531;42.570;23.676;2023-03-14T03:58:50;91975.44;;;-1.34;84.68
10958;BME280;5531;42.570;23.676;2023-03-14T04:01:19;91982.66;;;-1.27;84.87
10958;BME280;5531;42.570;23.676;2023-03-14T04:03:51;91982.66;;;-1.27;84.85
10958;BME280;5531;42.570;23.676;2023-03-14T04:06:20;91983.75;;;-1.30;84.53
10958;BME280;5531;42.570;23.676;2023-03-14T04:08:49;91980.81;;;-1.25;84.58
10958;BME280;5531;42.570;23.676;2023-03-14T04:11:18;91981.47;;;-1.23;83.53
10958;BME280;5531;42.570;23.676;2023-03-14T04:13:47;91980.66;;;-1.24;84.41
10958;BME280;5531;42.570;23.676;2023-03-14T04:16:17;91984.22;;;-1.15;84.25
10958;BME280;5531;42.570;23.676;2023-03-14T04:18:47;91983.00;;;-1.11;83.87
10958;BME280;5531;42.570;23.676;2023-03-14T04:21:19;91974.78;;;-1.05;83.39
10958;BME280;5531;42.570;23.676;2023-03-14T04:23:48;91980.19;;;-1.08;83.38
10958;BME280;5531;42.570;23.676;2023-03-14T04:26:17;91978.97;;;-1.14;83.45
10958;BME280;5531;42.570;23.676;2023-03-14T04:28:46;91967.34;;;-1.08;83.72
10958;BME280;5531;42.570;23.676;2023-03-14T04:31:17;91979.31;;;-0.97;82.93
10958;BME280;5531;42.570;23.676;2023-03-14T04:33:46;91976.94;;;-1.10;82.60
10958;BME280;5531;42.570;23.676;2023-03-14T04:36:18;91970.47;;;-1.04;82.96
10958;BME280;5531;42.570;23.676;2023-03-14T04:38:47;91974.91;;;-1.06;82.90
10958;BME280;5531;42.570;23.676;2023-03-14T04:41:16;91961.59;;;-1.21;83.51
10958;BME280;5531;42.570;23.676;2023-03-14T04:43:45;91967.13;;;-1.26;83.74
10958;BME280;5531;42.570;23.676;2023-03-14T04:46:14;91969.56;;;-1.24;84.53
10958;BME280;5531;42.570;23.676;2023-03-14T04:48:43;91969.94;;;-1.29;84.07
10958;BME280;5531;42.570;23.676;2023-03-14T04:51:12;91962.88;;;-1.37;84.28
10958;BME280;5531;42.570;23.676;2023-03-14T04:53:43;91964.94;;;-1.31;85.16
10958;BME280;5531;42.570;23.676;2023-03-14T04:56:12;91964.13;;;-1.31;85.29
10958;BME280;5531;42.570;23.676;2023-03-14T04:58:41;91965.47;;;-1.37;85.25
10958;BME280;5531;42.570;23.676;2023-03-14T05:01:10;91959.47;;;-1.37;85.47
10958;BME280;5531;42.570;23.676;2023-03-14T05:03:39;91955.84;;;-1.35;85.05
10958;BME280;5531;42.570;23.676;2023-03-14T05:06:09;91962.47;;;-1.32;85.36
10958;BME280;5531;42.570;23.676;2023-03-14T05:08:38;91956.53;;;-1.33;84.69
10958;BME280;5531;42.570;23.676;2023-03-14T05:11:10;91961.13;;;-1.36;84.76
10958;BME280;5531;42.570;23.676;2023-03-14T05:13:39;91961.00;;;-1.35;85.62
10958;BME280;5531;42.570;23.676;2023-03-14T05:16:10;91959.59;;;-1.39;85.02
10958;BME280;5531;42.570;23.676;2023-03-14T05:18:39;91956.53;;;-1.33;84.49
10958;BME280;5531;42.570;23.676;2023-03-14T05:21:08;91950.97;;;-1.38;84.91
10958;BME280;5531;42.570;23.676;2023-03-14T05:23:37;91951.28;;;-1.31;85.23
10958;BME280;5531;42.570;23.676;2023-03-14T05:26:09;91948.69;;;-1.31;84.22
10958;BME280;5531;42.570;23.676;2023-03-14T05:28:38;91939.28;;;-1.21;85.00
10958;BME280;5531;42.570;23.676;2023-03-14T05:31:08;91934.88;;;-1.09;84.50
10958;BME280;5531;42.570;23.676;2023-03-14T05:33:37;91952.13;;;-0.90;83.79
10958;BME280;5531;42.570;23.676;2023-03-14T05:36:08;91953.28;;;-0.73;81.86
10958;BME280;5531;42.570;23.676;2023-03-14T05:38:37;91942.06;;;-0.52;81.49
10958;BME280;5531;42.570;23.676;2023-03-14T05:41:09;91940.09;;;-0.29;80.73
10958;BME280;5531;42.570;23.676;2023-03-14T05:43:38;91937.91;;;-0.34;80.80
10958;BME280;5531;42.570;23.676;2023-03-14T05:46:07;91940.91;;;-0.29;80.84
10958;BME280;5531;42.570;23.676;2023-03-14T05:48:35;91947.38;;;-0.25;81.49
10958;BME280;5531;42.570;23.676;2023-03-14T05:51:05;91938.72;;;-0.24;80.65
10958;BME280;5531;42.570;23.676;2023-03-14T05:53:34;91938.19;;;-0.17;80.81
10958;BME280;5531;42.570;23.676;2023-03-14T05:56:03;91931.69;;;-0.12;79.62
10958;BME280;5531;42.570;23.676;2023-03-14T05:58:35;91926.41;;;-0.01;79.17
10958;BME280;5531;42.570;23.676;2023-03-14T06:01:05;91932.91;;;0.04;79.56
10958;BME280;5531;42.570;23.676;2023-03-14T06:03:35;91934.25;;;0.17;77.47
10958;BME280;5531;42.570;23.676;2023-03-14T06:06:04;91934.38;;;0.26;76.73
10958;BME280;5531;42.570;23.676;2023-03-14T06:08:33;91938.84;;;0.43;77.03
10958;BME280;5531;42.570;23.676;2023-03-14T06:11:03;91935.41;;;0.62;75.62
10958;BME280;5531;42.570;23.676;2023-03-14T06:13:35;91934.00;;;0.78;74.78
10958;BME280;5531;42.570;23.676;2023-03-14T06:16:05;91930.19;;;0.91;73.87
10958;BME280;5531;42.570;23.676;2023-03-14T06:18:34;91935.44;;;1.00;74.12
10958;BME280;5531;42.570;23.676;2023-03-14T06:21:03;91936.31;;;1.18;72.28
10958;BME280;5531;42.570;23.676;2023-03-14T06:23:32;91946.59;;;1.28;72.67
10958;BME280;5531;42.570;23.676;2023-03-14T06:26:01;91943.00;;;1.39;71.96
10958;BME280;5531;42.570;23.676;2023-03-14T06:28:30;91944.28;;;1.53;71.08
10958;BME280;5531;42.570;23.676;2023-03-14T06:31:03;91948.31;;;1.65;69.44
10958;BME280;5531;42.570;23.676;2023-03-14T06:33:32;91936.22;;;1.83;70.01
10958;BME280;5531;42.570;23.676;2023-03-14T06:36:01;91932.91;;;1.91;67.94
10958;BME280;5531;42.570;23.676;2023-03-14T06:38:30;91932.91;;;1.91;67.95
10958;BME280;5531;42.570;23.676;2023-03-14T06:41:03;91918.06;;;2.11;68.08
10958;BME280;5531;42.570;23.676;2023-03-14T06:43:33;91919.75;;;2.20;66.85
10958;BME280;5531;42.570;23.676;2023-03-14T06:46:05;91921.63;;;2.10;66.55
10958;BME280;5531;42.570;23.676;2023-03-14T06:48:34;91926.63;;;2.12;66.79
10958;BME280;5531;42.570;23.676;2023-03-14T06:51:03;91924.22;;;2.10;67.16
10958;BME280;5531;42.570;23.676;2023-03-14T06:53:33;91928.38;;;2.29;67.67
10958;BME280;5531;42.570;23.676;2023-03-14T06:56:01;91936.34;;;2.36;67.43
10958;BME280;5531;42.570;23.676;2023-03-14T06:58:30;91930.00;;;2.48;66.03
10958;BME280;5531;42.570;23.676;2023-03-14T07:00:59;91936.53;;;2.61;65.92
10958;BME280;5531;42.570;23.676;2023-03-14T07:03:31;91935.53;;;2.80;65.20
10958;BME280;5531;42.570;23.676;2023-03-14T07:06:04;91931.09;;;2.98;65.51
10958;BME280;5531;42.570;23.676;2023-03-14T07:08:36;91930.69;;;3.11;64.45
10958;BME280;5531;42.570;23.676;2023-03-14T07:11:06;91916.88;;;3.28;64.52
10958;BME280;5531;42.570;23.676;2023-03-14T07:13:36;91928.91;;;3.38;64.71
10958;BME280;5531;42.570;23.676;2023-03-14T07:16:06;91934.91;;;3.46;63.00
10958;BME280;5531;42.570;23.676;2023-03-14T07:18:38;91927.13;;;3.46;61.97
10958;BME280;5531;42.570;23.676;2023-03-14T07:21:08;91921.97;;;3.46;61.82
10958;BME280;5531;42.570;23.676;2023-03-14T07:23:38;91916.66;;;3.56;62.29
10958;BME280;5531;42.570;23.676;2023-03-14T07:26:07;91919.75;;;3.68;61.12
10958;BME280;5531;42.570;23.676;2023-03-14T07:28:36;91914.28;;;3.88;61.91
10958;BME280;5531;42.570;23.676;2023-03-14T07:31:05;91919.81;;;3.93;59.24
10958;BME280;5531;42.570;23.676;2023-03-14T07:33:34;91911.88;;;3.94;59.20
10958;BME280;5531;42.570;23.676;2023-03-14T07:36:07;91912.56;;;3.96;58.94
10958;BME280;5531;42.570;23.676;2023-03-14T07:38:36;91911.41;;;4.15;58.79
10958;BME280;5531;42.570;23.676;2023-03-14T07:41:06;91920.84;;;4.25;58.98
10958;BME280;5531;42.570;23.676;2023-03-14T07:43:35;91916.13;;;4.36;60.01
10958;BME280;5531;42.570;23.676;2023-03-14T07:46:05;91912.41;;;4.47;58.71
10958;BME280;5531;42.570;23.676;2023-03-14T07:48:34;91916.28;;;4.59;58.66
10958;BME280;5531;42.570;23.676;2023-03-14T07:51:06;91903.66;;;4.73;59.70
10958;BME280;5531;42.570;23.676;2023-03-14T07:53:35;91892.09;;;4.84;57.71
10958;BME280;5531;42.570;23.676;2023-03-14T07:56:05;91888.53;;;4.85;57.14
10958;BME280;5531;42.570;23.676;2023-03-14T07:58:34;91878.09;;;5.09;58.85
10958;BME280;5531;42.570;23.676;2023-03-14T08:01:04;91889.59;;;5.23;57.77
10958;BME280;5531;42.570;23.676;2023-03-14T08:03:33;91886.47;;;5.28;56.79
10958;BME280;5531;42.570;23.676;2023-03-14T08:06:05;91889.84;;;5.37;56.32
10958;BME280;5531;42.570;23.676;2023-03-14T08:08:34;91874.56;;;5.42;56.84
10958;BME280;5531;42.570;23.676;2023-03-14T08:11:05;91880.22;;;5.45;57.02
10958;BME280;5531;42.570;23.676;2023-03-14T08:13:34;91896.41;;;5.64;55.27
10958;BME280;5531;42.570;23.676;2023-03-14T08:16:04;91889.25;;;5.66;55.47
10958;BME280;5531;42.570;23.676;2023-03-14T08:18:34;91882.56;;;5.95;57.20
10958;BME280;5531;42.570;23.676;2023-03-14T08:21:06;91877.84;;;6.07;54.81
10958;BME280;5531;42.570;23.676;2023-03-14T08:23:35;91880.38;;;6.15;56.21
10958;BME280;5531;42.570;23.676;2023-03-14T08:26:04;91883.47;;;6.33;55.38
10958;BME280;5531;42.570;23.676;2023-03-14T08:28:33;91886.66;;;6.43;54.37
10958;BME280;5531;42.570;23.676;2023-03-14T08:31:02;91885.88;;;6.58;54.94
10958;BME280;5531;42.570;23.676;2023-03-14T08:33:31;91883.56;;;6.63;54.47
10958;BME280;5531;42.570;23.676;2023-03-14T08:36:01;91894.72;;;6.72;54.26
10958;BME280;5531;42.570;23.676;2023-03-14T08:38:32;91893.47;;;6.83;53.39
10958;BME280;5531;42.570;23.676;2023-03-14T08:41:02;91884.25;;;6.80;53.81
10958;BME280;5531;42.570;23.676;2023-03-14T08:43:31;91882.53;;;7.02;53.62
10958;BME280;5531;42.570;23.676;2023-03-14T08:46:01;91879.78;;;7.19;55.17
10958;BME280;5531;42.570;23.676;2023-03-14T08:48:30;91877.28;;;7.25;53.00
10958;BME280;5531;42.570;23.676;2023-03-14T08:51:04;91883.72;;;7.29;51.60
10958;BME280;5531;42.570;23.676;2023-03-14T08:53:36;91873.94;;;7.46;50.96
10958;BME280;5531;42.570;23.676;2023-03-14T08:56:06;91873.31;;;7.44;50.89
10958;BME280;5531;42.570;23.676;2023-03-14T08:58:36;91873.63;;;7.56;50.23
10958;BME280;5531;42.570;23.676;2023-03-14T09:01:09;91869.31;;;7.78;53.23
10958;BME280;5531;42.570;23.676;2023-03-14T09:03:38;91870.00;;;7.87;50.40
10958;BME280;5531;42.570;23.676;2023-03-14T09:06:09;91873.44;;;7.87;49.84
10958;BME280;5531;42.570;23.676;2023-03-14T09:08:41;91868.34;;;8.01;49.29
10958;BME280;5531;42.570;23.676;2023-03-14T09:11:10;91867.44;;;8.08;49.01
10958;BME280;5531;42.570;23.676;2023-03-14T09:13:39;91857.78;;;8.31;53.91
10958;BME280;5531;42.570;23.676;2023-03-14T09:16:09;91862.81;;;8.32;50.23
10958;BME280;5531;42.570;23.676;2023-03-14T09:18:38;91852.81;;;8.51;49.54
10958;BME280;5531;42.570;23.676;2023-03-14T09:21:07;91861.25;;;8.53;48.91
10958;BME280;5531;42.570;23.676;2023-03-14T09:23:36;91855.69;;;8.62;50.86
10958;BME280;5531;42.570;23.676;2023-03-14T09:26:08;91846.53;;;8.73;50.04
10958;BME280;5531;42.570;23.676;2023-03-14T09:28:37;91845.94;;;8.99;50.04
10958;BME280;5531;42.570;23.676;2023-03-14T09:31:07;91837.50;;;9.04;50.59
10958;BME280;5531;42.570;23.676;2023-03-14T09:33:37;91842.00;;;9.17;50.16
10958;BME280;5531;42.570;23.676;2023-03-14T09:36:07;91837.56;;;9.52;49.05
10958;BME280;5531;42.570;23.676;2023-03-14T09:38:36;91831.59;;;9.65;48.87
10958;BME280;5531;42.570;23.676;2023-03-14T09:41:15;91830.63;;;9.80;49.43
10958;BME280;5531;42.570;23.676;2023-03-14T09:43:46;91809.91;;;9.85;48.98
10958;BME280;5531;42.570;23.676;2023-03-14T09:46:17;91805.31;;;10.00;47.32
10958;BME280;5531;42.570;23.676;2023-03-14T09:48:46;91795.44;;;9.89;48.08
10958;BME280;5531;42.570;23.676;2023-03-14T09:51:17;91801.47;;;9.89;47.02
10958;BME280;5531;42.570;23.676;2023-03-14T09:53:48;91800.44;;;9.77;48.45
10958;BME280;5531;42.570;23.676;2023-03-14T09:56:21;91798.22;;;9.74;47.75
10958;BME280;5531;42.570;23.676;2023-03-14T09:58:55;91792.19;;;9.80;47.12
10958;BME280;5531;42.570;23.676;2023-03-14T10:01:27;91787.38;;;9.90;48.08
10958;BME280;5531;42.570;23.676;2023-03-14T10:03:58;91784.63;;;10.19;48.67
10958;BME280;5531;42.570;23.676;2023-03-14T10:06:30;91786.28;;;10.47;47.57
10958;BME280;5531;42.570;23.676;2023-03-14T10:09:01;91779.44;;;10.45;48.47
10958;BME280;5531;42.570;23.676;2023-03-14T10:11:34;91770.19;;;10.50;46.41
10958;BME280;5531;42.570;23.676;2023-03-14T10:14:06;91766.31;;;10.59;45.74
10958;BME280;5531;42.570;23.676;2023-03-14T10:16:37;91775.19;;;10.71;45.54
10958;BME280;5531;42.570;23.676;2023-03-14T10:19:11;91763.09;;;10.70;45.88
10958;BME280;5531;42.570;23.676;2023-03-14T10:21:42;91756.41;;;10.88;46.75
10958;BME280;5531;42.570;23.676;2023-03-14T10:24:20;91738.88;;;10.81;45.91
10958;BME280;5531;42.570;23.676;2023-03-14T10:26:53;91731.78;;;11.02;46.35
10958;BME280;5531;42.570;23.676;2023-03-14T10:29:24;91736.00;;;11.10;45.61
10958;BME280;5531;42.570;23.676;2023-03-14T10:31:54;91727.91;;;11.11;43.41
10958;BME280;5531;42.570;23.676;2023-03-14T10:34:26;91724.09;;;11.14;44.24
10958;BME280;5531;42.570;23.676;2023-03-14T10:36:57;91709.13;;;11.21;44.48
10958;BME280;5531;42.570;23.676;2023-03-14T10:39:37;91707.66;;;11.38;44.57
10958;BME280;5531;42.570;23.676;2023-03-14T10:42:21;91710.84;;;11.47;43.62
10958;BME280;5531;42.570;23.676;2023-03-14T10:44:55;91703.03;;;11.72;42.45
10958;BME280;5531;42.570;23.676;2023-03-14T10:47:27;91697.03;;;11.59;42.98
10958;BME280;5531;42.570;23.676;2023-03-14T10:49:57;91698.75;;;11.85;43.92
10958;BME280;5531;42.570;23.676;2023-03-14T10:52:27;91701.72;;;11.95;41.25
10958;BME280;5531;42.570;23.676;2023-03-14T10:54:59;91685.75;;;11.97;42.88
10958;BME280;5531;42.570;23.676;2023-03-14T10:57:32;91682.13;;;12.23;44.92
10958;BME280;5531;42.570;23.676;2023-03-14T11:00:14;91677.66;;;12.49;43.26
10958;BME280;5531;42.570;23.676;2023-03-14T11:02:53;91673.16;;;12.05;42.12
10958;BME280;5531;42.570;23.676;2023-03-14T11:05:31;91666.38;;;12.23;42.52
10958;BME280;5531;42.570;23.676;2023-03-14T11:08:08;91661.16;;;12.41;42.47
10958;BME280;5531;42.570;23.676;2023-03-14T11:10:39;91653.81;;;12.25;40.66
10958;BME280;5531;42.570;23.676;2023-03-14T11:13:16;91647.19;;;12.22;41.12
10958;BME280;5531;42.570;23.676;2023-03-14T11:15:57;91643.13;;;12.45;44.65
10958;BME280;5531;42.570;23.676;2023-03-14T11:18:43;91635.03;;;12.46;41.61
10958;BME280;5531;42.570;23.676;2023-03-14T11:21:19;91633.88;;;12.61;42.71
10958;BME280;5531;42.570;23.676;2023-03-14T11:24:02;91615.09;;;12.76;41.34
10958;BME280;5531;42.570;23.676;2023-03-14T11:26:37;91609.84;;;12.76;39.84
10958;BME280;5531;42.570;23.676;2023-03-14T11:29:20;91606.88;;;12.72;40.51
10958;BME280;5531;42.570;23.676;2023-03-14T11:31:52;91596.56;;;12.71;41.08
10958;BME280;5531;42.570;23.676;2023-03-14T11:34:28;91596.78;;;12.88;41.40
10958;BME280;5531;42.570;23.676;2023-03-14T11:37:00;91602.19;;;12.93;39.04
10958;BME280;5531;42.570;23.676;2023-03-14T11:39:37;91590.66;;;12.75;39.31
10958;BME280;5531;42.570;23.676;2023-03-14T11:42:11;91579.75;;;12.90;42.71
10958;BME280;5531;42.570;23.676;2023-03-14T11:44:46;91566.44;;;13.03;40.00
10958;BME280;5531;42.570;23.676;2023-03-14T11:47:21;91575.41;;;13.14;40.26
10958;BME280;5531;42.570;23.676;2023-03-14T11:49:58;91569.13;;;13.34;39.36
10958;BME280;5531;42.570;23.676;2023-03-14T11:52:33;91565.75;;;13.57;39.76
10958;BME280;5531;42.570;23.676;2023-03-14T11:55:10;91569.25;;;13.51;39.56
10958;BME280;5531;42.570;23.676;2023-03-14T11:57:40;91552.00;;;13.43;40.01
10958;BME280;5531;42.570;23.676;2023-03-14T12:00:17;91550.63;;;13.52;37.83
10958;BME280;5531;42.570;23.676;2023-03-14T12:02:51;91548.75;;;13.11;37.71
10958;BME280;5531;42.570;23.676;2023-03-14T12:05:34;91545.38;;;13.22;38.73
10958;BME280;5531;42.570;23.676;2023-03-14T12:08:33;91535.66;;;13.23;38.68
10958;BME280;5531;42.570;23.676;2023-03-14T12:11:12;91542.66;;;13.29;37.82
10958;BME280;5531;42.570;23.676;2023-03-14T12:13:46;91532.66;;;13.19;38.37
10958;BME280;5531;42.570;23.676;2023-03-14T12:16:37;91526.75;;;13.24;38.16
10958;BME280;5531;42.570;23.676;2023-03-14T12:19:30;91513.09;;;13.69;40.31
10958;BME280;5531;42.570;23.676;2023-03-14T12:22:24;91520.44;;;13.79;37.60
10958;BME280;5531;42.570;23.676;2023-03-14T12:24:59;91517.78;;;13.55;36.82
10958;BME280;5531;42.570;23.676;2023-03-14T12:27:45;91502.91;;;13.49;37.76
10958;BME280;5531;42.570;23.676;2023-03-14T12:30:26;91498.34;;;13.56;36.25
10958;BME280;5531;42.570;23.676;2023-03-14T12:36:05;91505.25;;;13.81;36.63
10958;BME280;5531;42.570;23.676;2023-03-14T12:41:43;91488.84;;;13.79;37.37
10958;BME280;5531;42.570;23.676;2023-03-14T12:44:43;91491.38;;;13.85;37.74
10958;BME280;5531;42.570;23.676;2023-03-14T12:50:32;91492.41;;;13.96;37.93
10958;BME280;5531;42.570;23.676;2023-03-14T12:56:28;91477.81;;;14.29;38.52
10958;BME280;5531;42.570;23.676;2023-03-14T12:59:17;91484.53;;;14.48;38.19
10958;BME280;5531;42.570;23.676;2023-03-14T13:01:55;91481.25;;;14.41;35.25
10958;BME280;5531;42.570;23.676;2023-03-14T13:04:31;91471.56;;;14.59;37.60
10958;BME280;5531;42.570;23.676;2023-03-14T13:07:03;91476.25;;;14.57;36.86
10958;BME280;5531;42.570;23.676;2023-03-14T13:09:50;91476.41;;;14.62;37.55
10958;BME280;5531;42.570;23.676;2023-03-14T13:12:28;91471.69;;;14.64;38.01
10958;BME280;5531;42.570;23.676;2023-03-14T13:15:00;91468.38;;;14.45;38.85
10958;BME280;5531;42.570;23.676;2023-03-14T13:17:32;91466.22;;;14.54;37.76
10958;BME280;5531;42.570;23.676;2023-03-14T13:20:10;91469.19;;;14.45;35.96
10958;BME280;5531;42.570;23.676;2023-03-14T13:22:46;91456.59;;;14.36;39.52
10958;BME280;5531;42.570;23.676;2023-03-14T13:25:16;91454.91;;;14.29;36.84
10958;BME280;5531;42.570;23.676;2023-03-14T13:27:52;91442.97;;;14.39;36.48
10958;BME280;5531;42.570;23.676;2023-03-14T13:30:24;91443.38;;;14.19;36.81
10958;BME280;5531;42.570;23.676;2023-03-14T13:32:55;91443.88;;;14.44;37.49
10958;BME280;5531;42.570;23.676;2023-03-14T13:35:26;91435.97;;;14.44;37.26
10958;BME280;5531;42.570;23.676;2023-03-14T13:37:57;91425.25;;;14.34;38.71
10958;BME280;5531;42.570;23.676;2023-03-14T13:40:30;91420.94;;;14.04;37.20
10958;BME280;5531;42.570;23.676;2023-03-14T13:43:05;91425.19;;;14.05;37.50